To NAV CANADA Home Page Login to a new session Search on AWWS site Disclaimer Vers la page française équivalente Tips FAQ What's new on the site To the Forecasts and Observations / NOTAM section To "File a Flight Plan" website Publications and other links Update of the User's profile FIC Telephone Numbers My Weather Data Folder Route Weather Data Regional Weather Data Local Weather Data To the Forecasts and Observations / NOTAM section
Request Generated 04/24/2019 at 16:02:26 UTC . Weather information available at that time is displayed.

METAR/TAF

TIMMINS (VICTOR M. POWER)/ON    

METAR CYTS 241600Z 33006KT 260V350 15SM SCT026 BKN200 06/M02 A2992 RMK SC4CI2 SLP148=
METAR CYTS 241500Z 33006KT 260V360 15SM BKN031 BKN200 04/M01 A2994 RMK SC6CI1 SLP154=
METAR CYTS 241400Z 29004KT 15SM BKN034 BKN200 01/M02 A2995 RMK SC6CI1 SLP158=

TAF CYTS 241338Z 2414/2502 32008KT P6SM BKN025 TEMPO 2414/2420 OVC020
FM242000 20008KT P6SM FEW040
RMK NXT FCST BY 242000Z=
Your time UTC time
Weather data provided by Environment Canada and NAV CANADA